<?xml version="1.0" encoding="UTF-8" standalone="no" ?>
<gpx xmlns="http://www.topografix.com/GPX/1/1" xmlns:xsi="http://www.w3.org/2001/XMLSchema-instance" xsi:schemaLocation="http://www.topografix.com/GPX/1/1 http://www.topografix.com/GPX/1/1/gpx.xsd" version="1.1" creator="VisuGPX - https://www.visugpx.com">
  <metadata>
    <name>GR441 Kevin</name>
  </metadata>
  <wpt lat="45.86793" lon="2.95388">
    <ele>900.5</ele>
    <name><![CDATA[Bivy 1]]></name>
    <type><![CDATA[camping]]></type>
  </wpt>
  <wpt lat="45.77933" lon="2.86085">
    <ele>758</ele>
    <name><![CDATA[Bivy 2]]></name>
    <desc><![CDATA[Bivouac 2]]></desc>
    <type><![CDATA[camping]]></type>
  </wpt>
  <wpt lat="45.64793" lon="2.85852">
    <ele>1207.1</ele>
    <name><![CDATA[Bivy 3]]></name>
    <type><![CDATA[camping]]></type>
  </wpt>
  <wpt lat="45.71022" lon="2.94378">
    <ele>1043.6</ele>
    <name><![CDATA[Bivy 4]]></name>
    <type><![CDATA[camping]]></type>
  </wpt>
  <wpt lat="45.7932" lon="2.9464">
    <ele>1028.1</ele>
    <name><![CDATA[Bivy 5]]></name>
    <type><![CDATA[camping]]></type>
  </wpt>
  <wpt lat="45.86932" lon="2.98248">
    <ele>807</ele>
    <name><![CDATA[Bivy 6a]]></name>
    <type><![CDATA[camping]]></type>
  </wpt>
  <wpt lat="45.88162" lon="3.03012">
    <ele>659.4</ele>
    <name><![CDATA[Bivy 6b]]></name>
    <type><![CDATA[camping]]></type>
  </wpt>
  <wpt lat="45.90557" lon="2.99635">
    <ele>720.2</ele>
    <name><![CDATA[Départ / Arrivée1]]></name>
    <type><![CDATA[user]]></type>
  </wpt>
  <trk>
    <name><![CDATA[J5]]></name>
    <extensions>
      <line xmlns="http://www.topografix.com/GPX/gpx_style/0/2">
        <color>00fcff</color>
        <width>4</width>
      </line>
    </extensions>
    <trkseg>
      <trkpt lat="45.71033" lon="2.94337">
        <ele>1047.860156</ele>
        <time>2022-03-06T13:27:26Z</time>
      </trkpt>
      <trkpt lat="45.71046" lon="2.94295">
        <ele>1047.813122</ele>
        <time>2022-03-06T13:27:58Z</time>
      </trkpt>
      <trkpt lat="45.71102" lon="2.94447">
        <ele>1048.402066</ele>
        <time>2022-03-06T13:30:01Z</time>
      </trkpt>
      <trkpt lat="45.71192" lon="2.94597">
        <ele>1050.512736</ele>
        <time>2022-03-06T13:32:27Z</time>
      </trkpt>
      <trkpt lat="45.71248" lon="2.94663">
        <ele>1052.458666</ele>
        <time>2022-03-06T13:33:45Z</time>
      </trkpt>
      <trkpt lat="45.71351" lon="2.9472">
        <ele>1055.554737</ele>
        <time>2022-03-06T13:35:48Z</time>
      </trkpt>
      <trkpt lat="45.71367" lon="2.94727">
        <ele>1056.280474</ele>
        <time>2022-03-06T13:36:06Z</time>
      </trkpt>
      <trkpt lat="45.7142" lon="2.94785">
        <ele>1059.289162</ele>
        <time>2022-03-06T13:37:23Z</time>
      </trkpt>
      <trkpt lat="45.71444" lon="2.94803">
        <ele>1060.505221</ele>
        <time>2022-03-06T13:37:54Z</time>
      </trkpt>
      <trkpt lat="45.71553" lon="2.94842">
        <ele>1066.394975</ele>
        <time>2022-03-06T13:40:07Z</time>
      </trkpt>
      <trkpt lat="45.71618" lon="2.94857">
        <ele>1070.502016</ele>
        <time>2022-03-06T13:41:28Z</time>
      </trkpt>
      <trkpt lat="45.71781" lon="2.94942">
        <ele>1080.556098</ele>
        <time>2022-03-06T13:45:01Z</time>
      </trkpt>
      <trkpt lat="45.71916" lon="2.95057">
        <ele>1087.25059</ele>
        <time>2022-03-06T13:47:59Z</time>
      </trkpt>
      <trkpt lat="45.72023" lon="2.95117">
        <ele>1090.767078</ele>
        <time>2022-03-06T13:50:04Z</time>
      </trkpt>
      <trkpt lat="45.72067" lon="2.95148">
        <ele>1091.966088</ele>
        <time>2022-03-06T13:50:59Z</time>
      </trkpt>
      <trkpt lat="45.72115" lon="2.95165">
        <ele>1093.163858</ele>
        <time>2022-03-06T13:51:54Z</time>
      </trkpt>
      <trkpt lat="45.72134" lon="2.95172">
        <ele>1093.630417</ele>
        <time>2022-03-06T13:52:15Z</time>
      </trkpt>
      <trkpt lat="45.72191" lon="2.95215">
        <ele>1094.033834</ele>
        <time>2022-03-06T13:53:23Z</time>
      </trkpt>
      <trkpt lat="45.72218" lon="2.95211">
        <ele>1093.40329</ele>
        <time>2022-03-06T13:53:50Z</time>
      </trkpt>
      <trkpt lat="45.72218" lon="2.95217">
        <ele>1093.298066</ele>
        <time>2022-03-06T13:53:54Z</time>
      </trkpt>
      <trkpt lat="45.72228" lon="2.9524">
        <ele>1092.849081</ele>
        <time>2022-03-06T13:54:13Z</time>
      </trkpt>
      <trkpt lat="45.72249" lon="2.95258">
        <ele>1092.275284</ele>
        <time>2022-03-06T13:54:39Z</time>
      </trkpt>
      <trkpt lat="45.72317" lon="2.95338">
        <ele>1089.903436</ele>
        <time>2022-03-06T13:56:15Z</time>
      </trkpt>
      <trkpt lat="45.72342" lon="2.9536">
        <ele>1088.029415</ele>
        <time>2022-03-06T13:56:49Z</time>
      </trkpt>
      <trkpt lat="45.72449" lon="2.95509">
        <ele>1078.48832</ele>
        <time>2022-03-06T13:59:39Z</time>
      </trkpt>
      <trkpt lat="45.72596" lon="2.95642">
        <ele>1069.25431</ele>
        <time>2022-03-06T14:02:50Z</time>
      </trkpt>
      <trkpt lat="45.72614" lon="2.95642">
        <ele>1068.156575</ele>
        <time>2022-03-06T14:03:11Z</time>
      </trkpt>
      <trkpt lat="45.72702" lon="2.95647">
        <ele>1062.914594</ele>
        <time>2022-03-06T14:04:49Z</time>
      </trkpt>
      <trkpt lat="45.7272" lon="2.95656">
        <ele>1061.800753</ele>
        <time>2022-03-06T14:05:11Z</time>
      </trkpt>
      <trkpt lat="45.72817" lon="2.95796">
        <ele>1052.90008</ele>
        <time>2022-03-06T14:07:46Z</time>
      </trkpt>
      <trkpt lat="45.72854" lon="2.95869">
        <ele>1048.604779</ele>
        <time>2022-03-06T14:08:59Z</time>
      </trkpt>
      <trkpt lat="45.72903" lon="2.9593">
        <ele>1043.85987</ele>
        <time>2022-03-06T14:10:12Z</time>
      </trkpt>
      <trkpt lat="45.72968" lon="2.95992">
        <ele>1037.695567</ele>
        <time>2022-03-06T14:11:42Z</time>
      </trkpt>
      <trkpt lat="45.72986" lon="2.96022">
        <ele>1035.503546</ele>
        <time>2022-03-06T14:12:15Z</time>
      </trkpt>
      <trkpt lat="45.72998" lon="2.96057">
        <ele>1033.354024</ele>
        <time>2022-03-06T14:12:47Z</time>
      </trkpt>
      <trkpt lat="45.73046" lon="2.96123">
        <ele>1027.678478</ele>
        <time>2022-03-06T14:14:05Z</time>
      </trkpt>
      <trkpt lat="45.7307" lon="2.96143">
        <ele>1025.294668</ele>
        <time>2022-03-06T14:14:38Z</time>
      </trkpt>
      <trkpt lat="45.73134" lon="2.96164">
        <ele>1019.517864</ele>
        <time>2022-03-06T14:15:56Z</time>
      </trkpt>
      <trkpt lat="45.73311" lon="2.96282">
        <ele>1005.681295</ele>
        <time>2022-03-06T14:19:40Z</time>
      </trkpt>
      <trkpt lat="45.73368" lon="2.96298">
        <ele>1003.187233</ele>
        <time>2022-03-06T14:20:43Z</time>
      </trkpt>
      <trkpt lat="45.73386" lon="2.96315">
        <ele>1002.542901</ele>
        <time>2022-03-06T14:21:06Z</time>
      </trkpt>
      <trkpt lat="45.7342" lon="2.96321">
        <ele>1001.522136</ele>
        <time>2022-03-06T14:21:42Z</time>
      </trkpt>
      <trkpt lat="45.73554" lon="2.96387">
        <ele>997.7952</ele>
        <time>2022-03-06T14:24:10Z</time>
      </trkpt>
      <trkpt lat="45.73677" lon="2.96461">
        <ele>995.054817</ele>
        <time>2022-03-06T14:26:29Z</time>
      </trkpt>
      <trkpt lat="45.73722" lon="2.96498">
        <ele>993.750004</ele>
        <time>2022-03-06T14:27:23Z</time>
      </trkpt>
      <trkpt lat="45.73756" lon="2.96519">
        <ele>992.828148</ele>
        <time>2022-03-06T14:28:02Z</time>
      </trkpt>
      <trkpt lat="45.73798" lon="2.96557">
        <ele>991.578733</ele>
        <time>2022-03-06T14:28:54Z</time>
      </trkpt>
      <trkpt lat="45.73848" lon="2.96582">
        <ele>989.825625</ele>
        <time>2022-03-06T14:29:50Z</time>
      </trkpt>
      <trkpt lat="45.73892" lon="2.96596">
        <ele>987.755684</ele>
        <time>2022-03-06T14:30:38Z</time>
      </trkpt>
      <trkpt lat="45.73942" lon="2.96585">
        <ele>985.411688</ele>
        <time>2022-03-06T14:31:33Z</time>
      </trkpt>
      <trkpt lat="45.73949" lon="2.96587">
        <ele>985.038846</ele>
        <time>2022-03-06T14:31:42Z</time>
      </trkpt>
      <trkpt lat="45.73964" lon="2.96604">
        <ele>984.172199</ele>
        <time>2022-03-06T14:32:03Z</time>
      </trkpt>
      <trkpt lat="45.73975" lon="2.96611">
        <ele>983.6295</ele>
        <time>2022-03-06T14:32:16Z</time>
      </trkpt>
      <trkpt lat="45.74027" lon="2.96625">
        <ele>980.407946</ele>
        <time>2022-03-06T14:33:17Z</time>
      </trkpt>
      <trkpt lat="45.74071" lon="2.96622">
        <ele>977.234446</ele>
        <time>2022-03-06T14:34:07Z</time>
      </trkpt>
      <trkpt lat="45.74073" lon="2.96629">
        <ele>976.86703</ele>
        <time>2022-03-06T14:34:13Z</time>
      </trkpt>
      <trkpt lat="45.74082" lon="2.96646">
        <ele>975.782643</ele>
        <time>2022-03-06T14:34:30Z</time>
      </trkpt>
      <trkpt lat="45.7409" lon="2.96664">
        <ele>974.69821</ele>
        <time>2022-03-06T14:34:47Z</time>
      </trkpt>
      <trkpt lat="45.74098" lon="2.96678">
        <ele>973.756904</ele>
        <time>2022-03-06T14:35:02Z</time>
      </trkpt>
      <trkpt lat="45.74114" lon="2.96712">
        <ele>971.658899</ele>
        <time>2022-03-06T14:35:36Z</time>
      </trkpt>
      <trkpt lat="45.74122" lon="2.96732">
        <ele>970.493657</ele>
        <time>2022-03-06T14:35:54Z</time>
      </trkpt>
      <trkpt lat="45.74124" lon="2.96736">
        <ele>970.26271</ele>
        <time>2022-03-06T14:35:58Z</time>
      </trkpt>
      <trkpt lat="45.74127" lon="2.96744">
        <ele>969.802539</ele>
        <time>2022-03-06T14:36:05Z</time>
      </trkpt>
      <trkpt lat="45.74131" lon="2.96754">
        <ele>969.245248</ele>
        <time>2022-03-06T14:36:14Z</time>
      </trkpt>
      <trkpt lat="45.74139" lon="2.96772">
        <ele>968.510959</ele>
        <time>2022-03-06T14:36:32Z</time>
      </trkpt>
      <trkpt lat="45.74191" lon="2.968">
        <ele>965.866904</ele>
        <time>2022-03-06T14:37:34Z</time>
      </trkpt>
      <trkpt lat="45.7422" lon="2.96825">
        <ele>964.236274</ele>
        <time>2022-03-06T14:38:11Z</time>
      </trkpt>
      <trkpt lat="45.74305" lon="2.96899">
        <ele>960.112803</ele>
        <time>2022-03-06T14:39:56Z</time>
      </trkpt>
      <trkpt lat="45.7433" lon="2.96912">
        <ele>959.50652</ele>
        <time>2022-03-06T14:40:24Z</time>
      </trkpt>
      <trkpt lat="45.74336" lon="2.96914">
        <ele>959.37713</ele>
        <time>2022-03-06T14:40:30Z</time>
      </trkpt>
      <trkpt lat="45.74352" lon="2.96919">
        <ele>958.993311</ele>
        <time>2022-03-06T14:40:48Z</time>
      </trkpt>
      <trkpt lat="45.74497" lon="2.96983">
        <ele>955.381728</ele>
        <time>2022-03-06T14:43:26Z</time>
      </trkpt>
      <trkpt lat="45.74514" lon="2.9699">
        <ele>954.905454</ele>
        <time>2022-03-06T14:43:45Z</time>
      </trkpt>
      <trkpt lat="45.74605" lon="2.97024">
        <ele>952.361001</ele>
        <time>2022-03-06T14:45:25Z</time>
      </trkpt>
      <trkpt lat="45.74619" lon="2.97005">
        <ele>951.831889</ele>
        <time>2022-03-06T14:45:46Z</time>
      </trkpt>
      <trkpt lat="45.74791" lon="2.96915">
        <ele>948.080444</ele>
        <time>2022-03-06T14:48:57Z</time>
      </trkpt>
      <trkpt lat="45.74864" lon="2.96883">
        <ele>949.031714</ele>
        <time>2022-03-06T14:50:15Z</time>
      </trkpt>
      <trkpt lat="45.75178" lon="2.96797">
        <ele>955.671802</ele>
        <time>2022-03-06T14:56:03Z</time>
      </trkpt>
      <trkpt lat="45.75254" lon="2.96788">
        <ele>957.389481</ele>
        <time>2022-03-06T14:57:25Z</time>
      </trkpt>
      <trkpt lat="45.75281" lon="2.96794">
        <ele>958.026489</ele>
        <time>2022-03-06T14:57:55Z</time>
      </trkpt>
      <trkpt lat="45.75286" lon="2.96759">
        <ele>958.595094</ele>
        <time>2022-03-06T14:58:22Z</time>
      </trkpt>
      <trkpt lat="45.75279" lon="2.967">
        <ele>959.618338</ele>
        <time>2022-03-06T14:59:06Z</time>
      </trkpt>
      <trkpt lat="45.75284" lon="2.96688">
        <ele>959.879355</ele>
        <time>2022-03-06T14:59:17Z</time>
      </trkpt>
      <trkpt lat="45.75291" lon="2.96569">
        <ele>962.019262</ele>
        <time>2022-03-06T15:00:46Z</time>
      </trkpt>
      <trkpt lat="45.75275" lon="2.96519">
        <ele>963.02066</ele>
        <time>2022-03-06T15:01:29Z</time>
      </trkpt>
      <trkpt lat="45.75272" lon="2.96465">
        <ele>964.309678</ele>
        <time>2022-03-06T15:02:11Z</time>
      </trkpt>
      <trkpt lat="45.75264" lon="2.96419">
        <ele>965.852997</ele>
        <time>2022-03-06T15:02:50Z</time>
      </trkpt>
      <trkpt lat="45.75284" lon="2.96321">
        <ele>969.118104</ele>
        <time>2022-03-06T15:04:14Z</time>
      </trkpt>
      <trkpt lat="45.75293" lon="2.96244">
        <ele>971.613714</ele>
        <time>2022-03-06T15:05:18Z</time>
      </trkpt>
      <trkpt lat="45.75392" lon="2.9617">
        <ele>978.07245</ele>
        <time>2022-03-06T15:07:31Z</time>
      </trkpt>
      <trkpt lat="45.75403" lon="2.96153">
        <ele>979.034436</ele>
        <time>2022-03-06T15:07:51Z</time>
      </trkpt>
      <trkpt lat="45.7543" lon="2.96083">
        <ele>982.272049</ele>
        <time>2022-03-06T15:08:58Z</time>
      </trkpt>
      <trkpt lat="45.75443" lon="2.96024">
        <ele>985.852087</ele>
        <time>2022-03-06T15:09:51Z</time>
      </trkpt>
      <trkpt lat="45.75496" lon="2.95959">
        <ele>991.684237</ele>
        <time>2022-03-06T15:11:18Z</time>
      </trkpt>
      <trkpt lat="45.75583" lon="2.95902">
        <ele>1000.553038</ele>
        <time>2022-03-06T15:13:27Z</time>
      </trkpt>
      <trkpt lat="45.75611" lon="2.95872">
        <ele>1004.666648</ele>
        <time>2022-03-06T15:14:17Z</time>
      </trkpt>
      <trkpt lat="45.75625" lon="2.95845">
        <ele>1007.463204</ele>
        <time>2022-03-06T15:14:53Z</time>
      </trkpt>
      <trkpt lat="45.75661" lon="2.95798">
        <ele>1013.105013</ele>
        <time>2022-03-06T15:16:02Z</time>
      </trkpt>
      <trkpt lat="45.75669" lon="2.9577">
        <ele>1015.572397</ele>
        <time>2022-03-06T15:16:33Z</time>
      </trkpt>
      <trkpt lat="45.75669" lon="2.95739">
        <ele>1018.132781</ele>
        <time>2022-03-06T15:17:04Z</time>
      </trkpt>
      <trkpt lat="45.75658" lon="2.95685">
        <ele>1021.576045</ele>
        <time>2022-03-06T15:17:58Z</time>
      </trkpt>
      <trkpt lat="45.75692" lon="2.95717">
        <ele>1025.099187</ele>
        <time>2022-03-06T15:18:53Z</time>
      </trkpt>
      <trkpt lat="45.75779" lon="2.95777">
        <ele>1033.594579</ele>
        <time>2022-03-06T15:20:54Z</time>
      </trkpt>
      <trkpt lat="45.75881" lon="2.95859">
        <ele>1041.155213</ele>
        <time>2022-03-06T15:23:12Z</time>
      </trkpt>
      <trkpt lat="45.75914" lon="2.95879">
        <ele>1043.433063</ele>
        <time>2022-03-06T15:23:56Z</time>
      </trkpt>
      <trkpt lat="45.75947" lon="2.95883">
        <ele>1045.560706</ele>
        <time>2022-03-06T15:24:38Z</time>
      </trkpt>
      <trkpt lat="45.76006" lon="2.95876">
        <ele>1049.475809</ele>
        <time>2022-03-06T15:25:53Z</time>
      </trkpt>
      <trkpt lat="45.7603" lon="2.95812">
        <ele>1052.824223</ele>
        <time>2022-03-06T15:26:57Z</time>
      </trkpt>
      <trkpt lat="45.7606" lon="2.95766">
        <ele>1055.759968</ele>
        <time>2022-03-06T15:27:50Z</time>
      </trkpt>
      <trkpt lat="45.76117" lon="2.95754">
        <ele>1058.736513</ele>
        <time>2022-03-06T15:28:58Z</time>
      </trkpt>
      <trkpt lat="45.76164" lon="2.95732">
        <ele>1060.711691</ele>
        <time>2022-03-06T15:29:54Z</time>
      </trkpt>
      <trkpt lat="45.76196" lon="2.95738">
        <ele>1061.958139</ele>
        <time>2022-03-06T15:30:29Z</time>
      </trkpt>
      <trkpt lat="45.76225" lon="2.95743">
        <ele>1063.120974</ele>
        <time>2022-03-06T15:31:01Z</time>
      </trkpt>
      <trkpt lat="45.76259" lon="2.95723">
        <ele>1064.586195</ele>
        <time>2022-03-06T15:31:42Z</time>
      </trkpt>
      <trkpt lat="45.76289" lon="2.95706">
        <ele>1066.610878</ele>
        <time>2022-03-06T15:32:19Z</time>
      </trkpt>
      <trkpt lat="45.76318" lon="2.95665">
        <ele>1069.215886</ele>
        <time>2022-03-06T15:33:08Z</time>
      </trkpt>
      <trkpt lat="45.7632" lon="2.95665">
        <ele>1069.382504</ele>
        <time>2022-03-06T15:33:11Z</time>
      </trkpt>
      <trkpt lat="45.76336" lon="2.95666">
        <ele>1070.385392</ele>
        <time>2022-03-06T15:33:30Z</time>
      </trkpt>
      <trkpt lat="45.76344" lon="2.95648">
        <ele>1071.336173</ele>
        <time>2022-03-06T15:33:47Z</time>
      </trkpt>
      <trkpt lat="45.76366" lon="2.95632">
        <ele>1072.92713</ele>
        <time>2022-03-06T15:34:18Z</time>
      </trkpt>
      <trkpt lat="45.76385" lon="2.95607">
        <ele>1074.528285</ele>
        <time>2022-03-06T15:34:49Z</time>
      </trkpt>
      <trkpt lat="45.76393" lon="2.95553">
        <ele>1077.801124</ele>
        <time>2022-03-06T15:35:40Z</time>
      </trkpt>
      <trkpt lat="45.76421" lon="2.95544">
        <ele>1081.293482</ele>
        <time>2022-03-06T15:36:20Z</time>
      </trkpt>
      <trkpt lat="45.76437" lon="2.95538">
        <ele>1083.321814</ele>
        <time>2022-03-06T15:36:43Z</time>
      </trkpt>
      <trkpt lat="45.76439" lon="2.95537">
        <ele>1083.602731</ele>
        <time>2022-03-06T15:36:47Z</time>
      </trkpt>
      <trkpt lat="45.76442" lon="2.95544">
        <ele>1084.322138</ele>
        <time>2022-03-06T15:36:56Z</time>
      </trkpt>
      <trkpt lat="45.76447" lon="2.95557">
        <ele>1085.530917</ele>
        <time>2022-03-06T15:37:10Z</time>
      </trkpt>
      <trkpt lat="45.76486" lon="2.95592">
        <ele>1091.127841</ele>
        <time>2022-03-06T15:38:22Z</time>
      </trkpt>
      <trkpt lat="45.76494" lon="2.95607">
        <ele>1092.769894</ele>
        <time>2022-03-06T15:38:44Z</time>
      </trkpt>
      <trkpt lat="45.76499" lon="2.95707">
        <ele>1101.537422</ele>
        <time>2022-03-06T15:40:27Z</time>
      </trkpt>
      <trkpt lat="45.76514" lon="2.95764">
        <ele>1107.047377</ele>
        <time>2022-03-06T15:41:30Z</time>
      </trkpt>
      <trkpt lat="45.76533" lon="2.95788">
        <ele>1110.381582</ele>
        <time>2022-03-06T15:42:06Z</time>
      </trkpt>
      <trkpt lat="45.76587" lon="2.95809">
        <ele>1117.62697</ele>
        <time>2022-03-06T15:43:28Z</time>
      </trkpt>
      <trkpt lat="45.76619" lon="2.95854">
        <ele>1124.296136</ele>
        <time>2022-03-06T15:44:35Z</time>
      </trkpt>
      <trkpt lat="45.76627" lon="2.95851">
        <ele>1125.726042</ele>
        <time>2022-03-06T15:44:46Z</time>
      </trkpt>
      <trkpt lat="45.76645" lon="2.95796">
        <ele>1133.49689</ele>
        <time>2022-03-06T15:46:08Z</time>
      </trkpt>
      <trkpt lat="45.76644" lon="2.95755">
        <ele>1138.619423</ele>
        <time>2022-03-06T15:46:57Z</time>
      </trkpt>
      <trkpt lat="45.7665" lon="2.95745">
        <ele>1140.29834</ele>
        <time>2022-03-06T15:47:16Z</time>
      </trkpt>
      <trkpt lat="45.767" lon="2.95751">
        <ele>1149.495919</ele>
        <time>2022-03-06T15:48:46Z</time>
      </trkpt>
      <trkpt lat="45.76717" lon="2.95797">
        <ele>1156.526629</ele>
        <time>2022-03-06T15:50:02Z</time>
      </trkpt>
      <trkpt lat="45.76725" lon="2.95808">
        <ele>1158.993848</ele>
        <time>2022-03-06T15:50:32Z</time>
      </trkpt>
      <trkpt lat="45.76735" lon="2.9581">
        <ele>1161.17748</ele>
        <time>2022-03-06T15:50:56Z</time>
      </trkpt>
      <trkpt lat="45.76745" lon="2.9581">
        <ele>1163.396571</ele>
        <time>2022-03-06T15:51:11Z</time>
      </trkpt>
      <trkpt lat="45.76769" lon="2.9579">
        <ele>1169.604849</ele>
        <time>2022-03-06T15:52:21Z</time>
      </trkpt>
      <trkpt lat="45.76776" lon="2.95798">
        <ele>1171.486223</ele>
        <time>2022-03-06T15:52:35Z</time>
      </trkpt>
      <trkpt lat="45.7676" lon="2.95863">
        <ele>1182.103172</ele>
        <time>2022-03-06T15:54:21Z</time>
      </trkpt>
      <trkpt lat="45.76737" lon="2.95926">
        <ele>1193.144972</ele>
        <time>2022-03-06T15:56:05Z</time>
      </trkpt>
      <trkpt lat="45.76736" lon="2.95973">
        <ele>1198.510437</ele>
        <time>2022-03-06T15:57:00Z</time>
      </trkpt>
      <trkpt lat="45.76736" lon="2.95976">
        <ele>1198.848252</ele>
        <time>2022-03-06T15:57:06Z</time>
      </trkpt>
      <trkpt lat="45.76725" lon="2.96015">
        <ele>1203.418209</ele>
        <time>2022-03-06T15:57:52Z</time>
      </trkpt>
      <trkpt lat="45.76724" lon="2.96038">
        <ele>1205.901242</ele>
        <time>2022-03-06T15:58:17Z</time>
      </trkpt>
      <trkpt lat="45.7673" lon="2.96038">
        <ele>1206.755604</ele>
        <time>2022-03-06T15:58:26Z</time>
      </trkpt>
      <trkpt lat="45.76751" lon="2.96008">
        <ele>1211.42991</ele>
        <time>2022-03-06T15:59:06Z</time>
      </trkpt>
      <trkpt lat="45.76771" lon="2.95965">
        <ele>1217.064445</ele>
        <time>2022-03-06T16:00:01Z</time>
      </trkpt>
      <trkpt lat="45.76787" lon="2.95945">
        <ele>1220.332644</ele>
        <time>2022-03-06T16:00:29Z</time>
      </trkpt>
      <trkpt lat="45.7679" lon="2.95955">
        <ele>1221.482258</ele>
        <time>2022-03-06T16:00:44Z</time>
      </trkpt>
      <trkpt lat="45.76769" lon="2.9603">
        <ele>1235.253653</ele>
        <time>2022-03-06T16:02:41Z</time>
      </trkpt>
      <trkpt lat="45.76766" lon="2.96055">
        <ele>1239.611034</ele>
        <time>2022-03-06T16:03:22Z</time>
      </trkpt>
      <trkpt lat="45.76769" lon="2.9606">
        <ele>1240.717085</ele>
        <time>2022-03-06T16:03:33Z</time>
      </trkpt>
      <trkpt lat="45.76776" lon="2.96056">
        <ele>1242.43079</ele>
        <time>2022-03-06T16:03:48Z</time>
      </trkpt>
      <trkpt lat="45.7679" lon="2.96023">
        <ele>1249.102267</ele>
        <time>2022-03-06T16:04:51Z</time>
      </trkpt>
      <trkpt lat="45.76801" lon="2.96005">
        <ele>1253.35387</ele>
        <time>2022-03-06T16:05:34Z</time>
      </trkpt>
      <trkpt lat="45.76809" lon="2.95993">
        <ele>1256.063608</ele>
        <time>2022-03-06T16:05:54Z</time>
      </trkpt>
      <trkpt lat="45.76862" lon="2.95942">
        <ele>1271.985459</ele>
        <time>2022-03-06T16:08:41Z</time>
      </trkpt>
      <trkpt lat="45.76893" lon="2.95938">
        <ele>1279.994353</ele>
        <time>2022-03-06T16:09:59Z</time>
      </trkpt>
      <trkpt lat="45.76893" lon="2.95938">
        <ele>1280.122967</ele>
        <time>2022-03-06T16:10:04Z</time>
      </trkpt>
      <trkpt lat="45.76893" lon="2.95947">
        <ele>1281.741933</ele>
        <time>2022-03-06T16:10:22Z</time>
      </trkpt>
      <trkpt lat="45.76884" lon="2.95963">
        <ele>1285.473011</ele>
        <time>2022-03-06T16:10:52Z</time>
      </trkpt>
      <trkpt lat="45.76867" lon="2.95976">
        <ele>1290.353691</ele>
        <time>2022-03-06T16:11:48Z</time>
      </trkpt>
      <trkpt lat="45.76868" lon="2.95982">
        <ele>1291.413268</ele>
        <time>2022-03-06T16:11:55Z</time>
      </trkpt>
      <trkpt lat="45.76874" lon="2.95984">
        <ele>1292.964907</ele>
        <time>2022-03-06T16:12:04Z</time>
      </trkpt>
      <trkpt lat="45.76898" lon="2.95975">
        <ele>1299.412661</ele>
        <time>2022-03-06T16:13:14Z</time>
      </trkpt>
      <trkpt lat="45.76941" lon="2.9594">
        <ele>1311.975044</ele>
        <time>2022-03-06T16:14:41Z</time>
      </trkpt>
      <trkpt lat="45.76954" lon="2.95936">
        <ele>1313.090045</ele>
        <time>2022-03-06T16:15:00Z</time>
      </trkpt>
      <trkpt lat="45.76954" lon="2.95945">
        <ele>1313.652773</ele>
        <time>2022-03-06T16:15:17Z</time>
      </trkpt>
      <trkpt lat="45.76922" lon="2.96006">
        <ele>1318.073769</ele>
        <time>2022-03-06T16:16:23Z</time>
      </trkpt>
      <trkpt lat="45.76952" lon="2.95987">
        <ele>1320.776615</ele>
        <time>2022-03-06T16:17:06Z</time>
      </trkpt>
      <trkpt lat="45.7695" lon="2.96001">
        <ele>1321.590852</ele>
        <time>2022-03-06T16:17:17Z</time>
      </trkpt>
      <trkpt lat="45.7694" lon="2.96017">
        <ele>1322.904389</ele>
        <time>2022-03-06T16:17:34Z</time>
      </trkpt>
      <trkpt lat="45.76941" lon="2.96028">
        <ele>1323.557315</ele>
        <time>2022-03-06T16:17:43Z</time>
      </trkpt>
      <trkpt lat="45.76958" lon="2.96018">
        <ele>1325.088196</ele>
        <time>2022-03-06T16:18:03Z</time>
      </trkpt>
      <trkpt lat="45.76974" lon="2.95999">
        <ele>1326.809942</ele>
        <time>2022-03-06T16:18:26Z</time>
      </trkpt>
      <trkpt lat="45.7698" lon="2.96007">
        <ele>1327.681264</ele>
        <time>2022-03-06T16:18:35Z</time>
      </trkpt>
      <trkpt lat="45.7697" lon="2.96042">
        <ele>1330.985982</ele>
        <time>2022-03-06T16:19:03Z</time>
      </trkpt>
      <trkpt lat="45.76969" lon="2.96045">
        <ele>1331.318061</ele>
        <time>2022-03-06T16:19:06Z</time>
      </trkpt>
      <trkpt lat="45.76928" lon="2.96095">
        <ele>1338.254455</ele>
        <time>2022-03-06T16:20:11Z</time>
      </trkpt>
      <trkpt lat="45.76929" lon="2.96114">
        <ele>1339.949352</ele>
        <time>2022-03-06T16:20:34Z</time>
      </trkpt>
      <trkpt lat="45.76938" lon="2.9612">
        <ele>1341.228451</ele>
        <time>2022-03-06T16:20:52Z</time>
      </trkpt>
      <trkpt lat="45.76969" lon="2.96105">
        <ele>1345.35862</ele>
        <time>2022-03-06T16:22:03Z</time>
      </trkpt>
      <trkpt lat="45.76997" lon="2.96083">
        <ele>1349.40006</ele>
        <time>2022-03-06T16:23:12Z</time>
      </trkpt>
      <trkpt lat="45.77007" lon="2.96084">
        <ele>1350.853509</ele>
        <time>2022-03-06T16:23:30Z</time>
      </trkpt>
      <trkpt lat="45.77023" lon="2.96125">
        <ele>1356.068597</ele>
        <time>2022-03-06T16:24:29Z</time>
      </trkpt>
      <trkpt lat="45.77062" lon="2.96181">
        <ele>1364.829959</ele>
        <time>2022-03-06T16:26:24Z</time>
      </trkpt>
      <trkpt lat="45.7708" lon="2.96202">
        <ele>1368.527513</ele>
        <time>2022-03-06T16:27:00Z</time>
      </trkpt>
      <trkpt lat="45.77084" lon="2.96207">
        <ele>1369.349826</ele>
        <time>2022-03-06T16:27:11Z</time>
      </trkpt>
      <trkpt lat="45.77084" lon="2.96226">
        <ele>1371.516886</ele>
        <time>2022-03-06T16:27:30Z</time>
      </trkpt>
      <trkpt lat="45.77082" lon="2.96243">
        <ele>1373.388173</ele>
        <time>2022-03-06T16:27:44Z</time>
      </trkpt>
      <trkpt lat="45.7708" lon="2.96248">
        <ele>1374.056428</ele>
        <time>2022-03-06T16:27:53Z</time>
      </trkpt>
      <trkpt lat="45.77074" lon="2.96297">
        <ele>1378.335773</ele>
        <time>2022-03-06T16:28:39Z</time>
      </trkpt>
      <trkpt lat="45.77086" lon="2.96321">
        <ele>1376.911875</ele>
        <time>2022-03-06T16:29:09Z</time>
      </trkpt>
      <trkpt lat="45.77087" lon="2.96324">
        <ele>1376.770461</ele>
        <time>2022-03-06T16:29:12Z</time>
      </trkpt>
      <trkpt lat="45.7709" lon="2.96329">
        <ele>1376.454037</ele>
        <time>2022-03-06T16:29:17Z</time>
      </trkpt>
      <trkpt lat="45.77098" lon="2.96345">
        <ele>1375.535335</ele>
        <time>2022-03-06T16:29:33Z</time>
      </trkpt>
      <trkpt lat="45.7709" lon="2.96329">
        <ele>1374.616633</ele>
        <time>2022-03-06T16:29:49Z</time>
      </trkpt>
      <trkpt lat="45.77087" lon="2.96324">
        <ele>1374.300209</ele>
        <time>2022-03-06T16:29:55Z</time>
      </trkpt>
      <trkpt lat="45.77067" lon="2.9643">
        <ele>1369.101336</ele>
        <time>2022-03-06T16:31:34Z</time>
      </trkpt>
      <trkpt lat="45.77067" lon="2.96504">
        <ele>1365.185869</ele>
        <time>2022-03-06T16:32:38Z</time>
      </trkpt>
      <trkpt lat="45.77078" lon="2.9656">
        <ele>1361.190812</ele>
        <time>2022-03-06T16:33:30Z</time>
      </trkpt>
      <trkpt lat="45.77098" lon="2.96604">
        <ele>1357.602868</ele>
        <time>2022-03-06T16:34:14Z</time>
      </trkpt>
      <trkpt lat="45.77114" lon="2.96626">
        <ele>1355.410307</ele>
        <time>2022-03-06T16:34:40Z</time>
      </trkpt>
      <trkpt lat="45.7716" lon="2.96668">
        <ele>1349.978175</ele>
        <time>2022-03-06T16:35:43Z</time>
      </trkpt>
      <trkpt lat="45.7723" lon="2.96689">
        <ele>1343.283663</ele>
        <time>2022-03-06T16:37:02Z</time>
      </trkpt>
      <trkpt lat="45.77255" lon="2.96683">
        <ele>1340.963998</ele>
        <time>2022-03-06T16:37:31Z</time>
      </trkpt>
      <trkpt lat="45.77294" lon="2.96645">
        <ele>1336.581243</ele>
        <time>2022-03-06T16:38:28Z</time>
      </trkpt>
      <trkpt lat="45.77311" lon="2.96635">
        <ele>1334.85811</ele>
        <time>2022-03-06T16:38:51Z</time>
      </trkpt>
      <trkpt lat="45.7736" lon="2.96626">
        <ele>1328.933763</ele>
        <time>2022-03-06T16:39:52Z</time>
      </trkpt>
      <trkpt lat="45.7736" lon="2.96645">
        <ele>1326.762273</ele>
        <time>2022-03-06T16:40:10Z</time>
      </trkpt>
      <trkpt lat="45.774" lon="2.96615">
        <ele>1319.593039</ele>
        <time>2022-03-06T16:41:07Z</time>
      </trkpt>
      <trkpt lat="45.77457" lon="2.9659">
        <ele>1310.084807</ele>
        <time>2022-03-06T16:42:26Z</time>
      </trkpt>
      <trkpt lat="45.77542" lon="2.96448">
        <ele>1286.172673</ele>
        <time>2022-03-06T16:45:28Z</time>
      </trkpt>
      <trkpt lat="45.77568" lon="2.96498">
        <ele>1277.647131</ele>
        <time>2022-03-06T16:46:31Z</time>
      </trkpt>
      <trkpt lat="45.7762" lon="2.96435">
        <ele>1264.188551</ele>
        <time>2022-03-06T16:48:13Z</time>
      </trkpt>
      <trkpt lat="45.77643" lon="2.96477">
        <ele>1256.662792</ele>
        <time>2022-03-06T16:49:08Z</time>
      </trkpt>
      <trkpt lat="45.77744" lon="2.96436">
        <ele>1235.236179</ele>
        <time>2022-03-06T16:51:48Z</time>
      </trkpt>
      <trkpt lat="45.77816" lon="2.96425">
        <ele>1223.854218</ele>
        <time>2022-03-06T16:53:23Z</time>
      </trkpt>
      <trkpt lat="45.77823" lon="2.96425">
        <ele>1222.865885</ele>
        <time>2022-03-06T16:53:32Z</time>
      </trkpt>
      <trkpt lat="45.77892" lon="2.96415">
        <ele>1213.154354</ele>
        <time>2022-03-06T16:54:59Z</time>
      </trkpt>
      <trkpt lat="45.7792" lon="2.96406">
        <ele>1209.076168</ele>
        <time>2022-03-06T16:55:35Z</time>
      </trkpt>
      <trkpt lat="45.7796" lon="2.96423">
        <ele>1203.393809</ele>
        <time>2022-03-06T16:56:26Z</time>
      </trkpt>
      <trkpt lat="45.77979" lon="2.96439">
        <ele>1200.445451</ele>
        <time>2022-03-06T16:56:52Z</time>
      </trkpt>
      <trkpt lat="45.77994" lon="2.96467">
        <ele>1197.270426</ele>
        <time>2022-03-06T16:57:22Z</time>
      </trkpt>
      <trkpt lat="45.78002" lon="2.96471">
        <ele>1196.119674</ele>
        <time>2022-03-06T16:57:33Z</time>
      </trkpt>
      <trkpt lat="45.78036" lon="2.9649">
        <ele>1191.349062</ele>
        <time>2022-03-06T16:58:18Z</time>
      </trkpt>
      <trkpt lat="45.78045" lon="2.96506">
        <ele>1189.497495</ele>
        <time>2022-03-06T16:58:36Z</time>
      </trkpt>
      <trkpt lat="45.78073" lon="2.96505">
        <ele>1185.895833</ele>
        <time>2022-03-06T16:59:10Z</time>
      </trkpt>
      <trkpt lat="45.78117" lon="2.96522">
        <ele>1178.861261</ele>
        <time>2022-03-06T17:00:12Z</time>
      </trkpt>
      <trkpt lat="45.7813" lon="2.96517">
        <ele>1176.536177</ele>
        <time>2022-03-06T17:00:29Z</time>
      </trkpt>
      <trkpt lat="45.78149" lon="2.96527">
        <ele>1173.063471</ele>
        <time>2022-03-06T17:00:58Z</time>
      </trkpt>
      <trkpt lat="45.78198" lon="2.96572">
        <ele>1162.964178</ele>
        <time>2022-03-06T17:02:16Z</time>
      </trkpt>
      <trkpt lat="45.78307" lon="2.96552">
        <ele>1145.906075</ele>
        <time>2022-03-06T17:04:47Z</time>
      </trkpt>
      <trkpt lat="45.7834" lon="2.96552">
        <ele>1141.495002</ele>
        <time>2022-03-06T17:05:29Z</time>
      </trkpt>
      <trkpt lat="45.78351" lon="2.96564">
        <ele>1139.702913</ele>
        <time>2022-03-06T17:05:46Z</time>
      </trkpt>
      <trkpt lat="45.78391" lon="2.96588">
        <ele>1134.018913</ele>
        <time>2022-03-06T17:06:40Z</time>
      </trkpt>
      <trkpt lat="45.78391" lon="2.96533">
        <ele>1128.943576</ele>
        <time>2022-03-06T17:07:26Z</time>
      </trkpt>
      <trkpt lat="45.78372" lon="2.96418">
        <ele>1122.620277</ele>
        <time>2022-03-06T17:09:00Z</time>
      </trkpt>
      <trkpt lat="45.78379" lon="2.96333">
        <ele>1118.281153</ele>
        <time>2022-03-06T17:10:07Z</time>
      </trkpt>
      <trkpt lat="45.78391" lon="2.96284">
        <ele>1115.629029</ele>
        <time>2022-03-06T17:10:48Z</time>
      </trkpt>
      <trkpt lat="45.78408" lon="2.96246">
        <ele>1112.958834</ele>
        <time>2022-03-06T17:11:25Z</time>
      </trkpt>
      <trkpt lat="45.78447" lon="2.96209">
        <ele>1108.765752</ele>
        <time>2022-03-06T17:12:20Z</time>
      </trkpt>
      <trkpt lat="45.78472" lon="2.96206">
        <ele>1106.501602</ele>
        <time>2022-03-06T17:12:49Z</time>
      </trkpt>
      <trkpt lat="45.7849" lon="2.96193">
        <ele>1104.613954</ele>
        <time>2022-03-06T17:13:14Z</time>
      </trkpt>
      <trkpt lat="45.78504" lon="2.96178">
        <ele>1103.019166</ele>
        <time>2022-03-06T17:13:34Z</time>
      </trkpt>
      <trkpt lat="45.7851" lon="2.96158">
        <ele>1101.663132</ele>
        <time>2022-03-06T17:13:53Z</time>
      </trkpt>
      <trkpt lat="45.7854" lon="2.96116">
        <ele>1097.864387</ele>
        <time>2022-03-06T17:14:43Z</time>
      </trkpt>
      <trkpt lat="45.78608" lon="2.96035">
        <ele>1089.509817</ele>
        <time>2022-03-06T17:16:29Z</time>
      </trkpt>
      <trkpt lat="45.78622" lon="2.95988">
        <ele>1086.159839</ele>
        <time>2022-03-06T17:17:12Z</time>
      </trkpt>
      <trkpt lat="45.78599" lon="2.95923">
        <ele>1081.558787</ele>
        <time>2022-03-06T17:18:11Z</time>
      </trkpt>
      <trkpt lat="45.78587" lon="2.95852">
        <ele>1078.449839</ele>
        <time>2022-03-06T17:19:09Z</time>
      </trkpt>
      <trkpt lat="45.78582" lon="2.95782">
        <ele>1075.472154</ele>
        <time>2022-03-06T17:20:05Z</time>
      </trkpt>
      <trkpt lat="45.78583" lon="2.95643">
        <ele>1070.416631</ele>
        <time>2022-03-06T17:21:51Z</time>
      </trkpt>
      <trkpt lat="45.78583" lon="2.95629">
        <ele>1070.202401</ele>
        <time>2022-03-06T17:22:02Z</time>
      </trkpt>
      <trkpt lat="45.78601" lon="2.95509">
        <ele>1068.359607</ele>
        <time>2022-03-06T17:23:30Z</time>
      </trkpt>
      <trkpt lat="45.78613" lon="2.95319">
        <ele>1065.906492</ele>
        <time>2022-03-06T17:25:47Z</time>
      </trkpt>
      <trkpt lat="45.78634" lon="2.95138">
        <ele>1063.442079</ele>
        <time>2022-03-06T17:27:59Z</time>
      </trkpt>
      <trkpt lat="45.78639" lon="2.95016">
        <ele>1059.95463</ele>
        <time>2022-03-06T17:29:31Z</time>
      </trkpt>
      <trkpt lat="45.78656" lon="2.94951">
        <ele>1057.988037</ele>
        <time>2022-03-06T17:30:24Z</time>
      </trkpt>
      <trkpt lat="45.78624" lon="2.94818">
        <ele>1053.29796</ele>
        <time>2022-03-06T17:32:13Z</time>
      </trkpt>
      <trkpt lat="45.78604" lon="2.94653">
        <ele>1047.569526</ele>
        <time>2022-03-06T17:34:22Z</time>
      </trkpt>
      <trkpt lat="45.78615" lon="2.94609">
        <ele>1046.753357</ele>
        <time>2022-03-06T17:34:58Z</time>
      </trkpt>
      <trkpt lat="45.78632" lon="2.94542">
        <ele>1045.538087</ele>
        <time>2022-03-06T17:35:50Z</time>
      </trkpt>
      <trkpt lat="45.78713" lon="2.94442">
        <ele>1043.412828</ele>
        <time>2022-03-06T17:37:41Z</time>
      </trkpt>
      <trkpt lat="45.78782" lon="2.94451">
        <ele>1043.884101</ele>
        <time>2022-03-06T17:38:51Z</time>
      </trkpt>
      <trkpt lat="45.78881" lon="2.94403">
        <ele>1044.457038</ele>
        <time>2022-03-06T17:40:42Z</time>
      </trkpt>
      <trkpt lat="45.78903" lon="2.94404">
        <ele>1044.348275</ele>
        <time>2022-03-06T17:41:05Z</time>
      </trkpt>
      <trkpt lat="45.79018" lon="2.94411">
        <ele>1043.76734</ele>
        <time>2022-03-06T17:43:01Z</time>
      </trkpt>
      <trkpt lat="45.79125" lon="2.94436">
        <ele>1041.297843</ele>
        <time>2022-03-06T17:44:56Z</time>
      </trkpt>
      <trkpt lat="45.7916" lon="2.94453">
        <ele>1040.179652</ele>
        <time>2022-03-06T17:45:36Z</time>
      </trkpt>
      <trkpt lat="45.79214" lon="2.94504">
        <ele>1038.244236</ele>
        <time>2022-03-06T17:46:45Z</time>
      </trkpt>
      <trkpt lat="45.79259" lon="2.94549">
        <ele>1037.001304</ele>
        <time>2022-03-06T17:47:43Z</time>
      </trkpt>
      <trkpt lat="45.79266" lon="2.94573">
        <ele>1036.59387</ele>
        <time>2022-03-06T17:48:02Z</time>
      </trkpt>
      <trkpt lat="45.79285" lon="2.94605">
        <ele>1035.924215</ele>
        <time>2022-03-06T17:48:34Z</time>
      </trkpt>
      <trkpt lat="45.7932" lon="2.94674">
        <ele>1034.592766</ele>
        <time>2022-03-06T17:49:35Z</time>
      </trkpt>
    </trkseg>
  </trk>
</gpx>